Time;durP1;ratioP1;P1;durP2;ratioP2;P2;SDS_P1;SDS_P2;PMS_P1;PMS_P2;Temp;Humidity;BMP_temperature;BMP_pressure;BME280_temperature;BME280_humidity;BME280_pressure;Samples;Min_cycle;Max_cycle;Signal;HPM_P1;HPM_P2
2022/09/10 00:00:46;;;;;;;;;;;;;;;51.08;21.20;100247.63;5053467;28;19920;-68
2022/09/10 00:03:12;;;;;;;;;;;;;;;51.35;20.88;100238.84;5053534;28;20315;-68
2022/09/10 00:05:45;;;;;;;;;;;;;;;51.36;20.23;100232.56;5053433;28;19943;-69
2022/09/10 00:08:11;;;;;;;;;;;;;;;50.38;21.55;100240.66;5045496;28;20371;-68
2022/09/10 00:10:42;;;;;;;;;;;;;;;49.57;21.67;100240.97;5033609;28;19923;-68
2022/09/10 00:13:09;;;;;;;;;;;;;;;49.92;22.50;100242.75;5033548;28;19921;-67
2022/09/10 00:15:46;;;;;;;;;;;;;;;49.84;21.98;100242.63;5033483;28;19917;-68
2022/09/10 00:18:13;;;;;;;;;;;;;;;48.55;23.56;100248.56;5033329;28;19929;-68
2022/09/10 00:20:59;;;;;;;;;;;;;;;49.09;22.73;100251.34;5033436;28;20334;-68
2022/09/10 00:23:26;;;;;;;;;;;;;;;48.20;24.37;100247.34;5036374;28;19929;-68
2022/09/10 00:25:53;;;;;;;;;;;;;;;48.78;22.99;100246.22;5037149;28;19921;-69
2022/09/10 00:28:21;;;;;;;;;;;;;;;49.79;21.80;100249.28;5037082;28;19920;-68
2022/09/10 00:30:48;;;;;;;;;;;;;;;48.73;22.60;100245.75;5035792;28;19917;-69
2022/09/10 00:33:15;;;;;;;;;;;;;;;48.04;22.26;100249.06;5036909;28;20008;-69
2022/09/10 00:35:41;;;;;;;;;;;;;;;49.39;21.32;100247.53;5036918;28;19987;-68
2022/09/10 00:38:08;;;;;;;;;;;;;;;49.00;21.34;100254.59;5052190;28;19921;-69
2022/09/10 00:40:35;;;;;;;;;;;;;;;48.89;20.80;100257.63;5035581;28;19917;-68
2022/09/10 00:43:02;;;;;;;;;;;;;;;49.07;21.32;100256.88;5068759;28;19941;-69
2022/09/10 00:45:32;;;;;;;;;;;;;;;48.96;20.50;100251.25;5036669;28;19940;-69
2022/09/10 00:48:04;;;;;;;;;;;;;;;48.51;20.17;100256.75;5036751;28;19921;-68
2022/09/10 00:50:34;;;;;;;;;;;;;;;49.15;20.06;100257.03;5035311;28;19944;-69
2022/09/10 00:53:03;;;;;;;;;;;;;;;48.97;19.72;100275.91;5036726;28;19999;-68
2022/09/10 00:55:30;;;;;;;;;;;;;;;49.22;20.65;100273.75;5036574;28;19917;-69
2022/09/10 00:57:59;;;;;;;;;;;;;;;49.30;19.25;100277.59;5036321;28;19921;-68
2022/09/10 01:00:25;;;;;;;;;;;;;;;48.80;19.96;100267.44;5036790;28;19913;-69
2022/09/10 01:02:53;;;;;;;;;;;;;;;48.36;20.64;100274.47;5068751;28;19927;-68
2022/09/10 01:05:21;;;;;;;;;;;;;;;47.22;20.86;100264.28;5036480;28;20386;-68
2022/09/10 01:07:47;;;;;;;;;;;;;;;47.91;20.79;100269.09;5034964;28;20390;-68
2022/09/10 01:10:19;;;;;;;;;;;;;;;47.54;21.44;100267.50;5036224;28;19937;-68
2022/09/10 01:12:57;;;;;;;;;;;;;;;48.67;19.37;100265.25;5036135;28;19921;-69
2022/09/10 01:15:23;;;;;;;;;;;;;;;48.80;19.05;100260.88;5051506;28;20013;-69
2022/09/10 01:17:56;;;;;;;;;;;;;;;48.47;19.23;100262.78;5068033;28;20362;-69
2022/09/10 01:20:43;;;;;;;;;;;;;;;47.61;20.55;100259.63;5068245;28;19943;-68
2022/09/10 01:23:12;;;;;;;;;;;;;;;47.42;20.52;100257.38;5051252;28;19921;-68
2022/09/10 01:25:39;;;;;;;;;;;;;;;48.91;18.86;100263.63;5036052;28;19944;-67
2022/09/10 01:28:07;;;;;;;;;;;;;;;48.57;19.47;100261.13;5034500;28;19956;-68
2022/09/10 01:30:36;;;;;;;;;;;;;;;49.43;18.67;100265.34;5034651;28;20371;-68
2022/09/10 01:33:16;;;;;;;;;;;;;;;49.19;18.79;100269.03;5050900;28;19927;-69
2022/09/10 01:35:45;;;;;;;;;;;;;;;47.82;20.42;100266.53;5034462;28;19932;-68
2022/09/10 01:38:21;;;;;;;;;;;;;;;48.93;19.13;100276.19;5035558;28;20272;-69
2022/09/10 01:40:48;;;;;;;;;;;;;;;49.37;19.26;100274.06;5034290;28;19921;-69
2022/09/10 01:43:18;;;;;;;;;;;;;;;49.60;18.44;100274.53;5034278;28;19917;-69
2022/09/10 01:45:48;;;;;;;;;;;;;;;49.29;18.77;100281.81;5067345;28;19928;-68
2022/09/10 01:48:14;;;;;;;;;;;;;;;49.68;18.85;100278.34;5034082;28;19921;-69
2022/09/10 01:50:44;;;;;;;;;;;;;;;48.71;19.65;100293.78;5034136;28;19972;-68
2022/09/10 01:53:29;;;;;;;;;;;;;;;48.98;19.12;100289.78;5067375;28;20434;-68
2022/09/10 01:56:02;;;;;;;;;;;;;;;49.28;18.70;100295.44;5034014;28;19957;-67
2022/09/10 01:58:35;;;;;;;;;;;;;;;49.18;18.37;100296.34;5067205;28;19928;-67
2022/09/10 02:01:09;;;;;;;;;;;;;;;48.56;18.95;100290.50;5067371;28;19929;-68
2022/09/10 02:03:38;;;;;;;;;;;;;;;48.85;19.04;100297.56;5050455;28;19960;-68
2022/09/10 02:06:08;;;;;;;;;;;;;;;48.71;18.49;100300.34;5033893;28;20389;-68
2022/09/10 02:08:37;;;;;;;;;;;;;;;48.38;18.79;100298.56;5071393;28;19974;-68
2022/09/10 02:11:08;;;;;;;;;;;;;;;48.30;19.23;100308.31;5053839;28;20038;-68
2022/09/10 02:13:38;;;;;;;;;;;;;;;48.27;18.67;100312.28;5054805;28;19944;-68
2022/09/10 02:16:36;;;;;;;;;;;;;;;49.03;18.23;100317.03;5053296;28;20023;-68
2022/09/10 02:19:03;;;;;;;;;;;;;;;48.62;18.54;100318.00;5053560;28;20003;-68
2022/09/10 02:21:31;;;;;;;;;;;;;;;48.68;18.60;100324.50;5053554;28;19952;-68
2022/09/10 02:24:04;;;;;;;;;;;;;;;48.35;18.83;100321.94;5053542;28;20291;-68
2022/09/10 02:26:32;;;;;;;;;;;;;;;48.59;18.32;100327.72;5053630;28;19973;-67
2022/09/10 02:29:02;;;;;;;;;;;;;;;48.44;17.98;100331.00;5053238;28;20340;-68
2022/09/10 02:31:28;;;;;;;;;;;;;;;48.42;18.71;100330.75;5051291;28;19921;-68
2022/09/10 02:33:55;;;;;;;;;;;;;;;47.92;18.38;100334.03;5034674;28;19917;-69
2022/09/10 02:36:25;;;;;;;;;;;;;;;48.01;18.49;100335.81;5033244;28;19928;-67
2022/09/10 02:38:52;;;;;;;;;;;;;;;48.49;18.67;100340.94;5033208;28;19927;-68
2022/09/10 02:41:24;;;;;;;;;;;;;;;48.46;18.28;100346.97;5034478;28;19927;-67
2022/09/10 02:43:52;;;;;;;;;;;;;;;48.48;17.99;100350.09;5033215;28;19928;-68
2022/09/10 02:46:18;;;;;;;;;;;;;;;47.79;18.42;100354.03;5032349;28;20044;-68
2022/09/10 02:48:45;;;;;;;;;;;;;;;48.33;18.47;100362.06;5033030;28;20389;-68
2022/09/10 02:51:12;;;;;;;;;;;;;;;48.52;17.85;100357.16;5033038;28;20288;-68
2022/09/10 02:53:39;;;;;;;;;;;;;;;47.78;18.54;100375.50;5032988;28;19921;-68
2022/09/10 02:56:07;;;;;;;;;;;;;;;47.08;19.07;100382.59;5032983;28;19918;-68
2022/09/10 02:58:35;;;;;;;;;;;;;;;48.26;18.67;100391.47;5032774;28;19925;-68
2022/09/10 03:01:07;;;;;;;;;;;;;;;48.24;18.38;100391.22;5032875;28;20371;-67
2022/09/10 03:03:35;;;;;;;;;;;;;;;47.78;18.80;100392.81;5032657;28;19927;-68
2022/09/10 03:06:01;;;;;;;;;;;;;;;48.09;18.91;100394.44;5033145;28;19917;-67
2022/09/10 03:08:28;;;;;;;;;;;;;;;48.28;19.15;100395.38;5033950;28;19921;-66
2022/09/10 03:10:56;;;;;;;;;;;;;;;48.29;19.20;100401.91;5032943;28;19921;-67
2022/09/10 03:13:23;;;;;;;;;;;;;;;47.46;19.88;100412.56;5032764;28;19925;-67
2022/09/10 03:15:50;;;;;;;;;;;;;;;47.69;18.86;100419.81;5033874;28;19956;-68
2022/09/10 03:18:17;;;;;;;;;;;;;;;47.98;19.18;100429.91;5032589;28;19921;-67
2022/09/10 03:20:43;;;;;;;;;;;;;;;47.98;18.78;100440.66;5032679;28;19917;-68
2022/09/10 03:23:10;;;;;;;;;;;;;;;47.37;19.96;100444.53;5033742;28;19929;-67
2022/09/10 03:25:36;;;;;;;;;;;;;;;48.13;19.15;100446.84;5032532;28;19913;-66
2022/09/10 03:28:03;;;;;;;;;;;;;;;47.77;19.28;100451.75;5033569;28;19925;-67
2022/09/10 03:30:31;;;;;;;;;;;;;;;47.91;19.21;100459.28;5032500;28;19968;-67
2022/09/10 03:32:58;;;;;;;;;;;;;;;47.94;19.11;100464.00;5033534;28;19940;-66
2022/09/10 03:35:24;;;;;;;;;;;;;;;47.86;19.02;100468.72;5033706;28;20260;-67
2022/09/10 03:37:51;;;;;;;;;;;;;;;48.05;18.43;100478.31;5033481;28;19925;-66
2022/09/10 03:40:17;;;;;;;;;;;;;;;48.00;19.40;100484.13;5032214;28;20385;-67
2022/09/10 03:42:44;;;;;;;;;;;;;;;47.90;19.84;100488.63;5032295;28;19921;-67
2022/09/10 03:45:12;;;;;;;;;;;;;;;48.35;18.61;100497.81;5032447;28;19917;-67
2022/09/10 03:47:39;;;;;;;;;;;;;;;48.60;18.61;100496.59;5032079;28;20371;-68
2022/09/10 04:02:15;;;;;;;;;;;;;;;47.16;20.07;100516.03;5132334;27;19916;-66
2022/09/10 04:04:43;;;;;;;;;;;;;;;47.23;20.30;100521.28;5113352;28;19970;-66
2022/09/10 04:07:10;;;;;;;;;;;;;;;47.32;20.23;100523.84;5113356;28;19916;-66
2022/09/10 04:09:36;;;;;;;;;;;;;;;47.55;20.05;100533.25;5113365;28;19924;-66
2022/09/10 04:12:02;;;;;;;;;;;;;;;47.43;19.89;100528.81;5113351;28;19919;-65
2022/09/10 04:14:31;;;;;;;;;;;;;;;47.38;20.68;100538.22;5131568;28;20014;-67
2022/09/10 04:16:59;;;;;;;;;;;;;;;48.05;19.88;100538.84;5113079;28;20018;-66
2022/09/10 04:19:27;;;;;;;;;;;;;;;47.99;19.47;100540.97;5112990;28;19969;-66
2022/09/10 04:21:54;;;;;;;;;;;;;;;48.06;19.76;100543.28;5112156;28;19989;-66
2022/09/10 04:24:22;;;;;;;;;;;;;;;47.09;20.61;100548.19;5130486;28;19920;-67
2022/09/10 04:26:48;;;;;;;;;;;;;;;47.92;19.93;100558.03;5109473;28;20383;-67
2022/09/10 04:29:17;;;;;;;;;;;;;;;48.04;19.91;100554.56;5109491;28;20033;-64
2022/09/10 04:31:45;;;;;;;;;;;;;;;48.21;19.72;100545.06;5109967;28;19998;-65
2022/09/10 04:34:13;;;;;;;;;;;;;;;47.50;20.08;100546.34;5109645;28;19964;-65
2022/09/10 04:36:39;;;;;;;;;;;;;;;47.61;20.33;100550.53;5109548;28;19945;-67
2022/09/10 04:39:07;;;;;;;;;;;;;;;47.74;19.60;100554.41;5110542;28;19920;-64
2022/09/10 04:41:35;;;;;;;;;;;;;;;47.25;20.99;100556.06;5110656;28;19975;-67
2022/09/10 04:44:01;;;;;;;;;;;;;;;47.33;20.55;100557.09;5110605;28;20344;-67
2022/09/10 04:46:27;;;;;;;;;;;;;;;47.18;20.87;100563.13;5129140;28;19916;-65
2022/09/10 04:48:57;;;;;;;;;;;;;;;46.78;20.79;100561.53;5110505;28;19919;-66
2022/09/10 04:51:23;;;;;;;;;;;;;;;46.87;21.58;100564.16;5110431;28;19922;-67
2022/09/10 04:53:52;;;;;;;;;;;;;;;47.20;20.35;100568.34;5110422;28;19919;-65
2022/09/10 04:56:21;;;;;;;;;;;;;;;47.54;20.80;100575.66;5112174;28;19942;-66
2022/09/10 04:58:48;;;;;;;;;;;;;;;46.07;21.57;100578.03;5112092;28;19965;-66
2022/09/10 05:01:15;;;;;;;;;;;;;;;46.69;21.92;100584.78;5076881;28;19956;-66
2022/09/10 05:03:43;;;;;;;;;;;;;;;47.66;20.83;100579.31;5074949;28;20437;-66
2022/09/10 05:06:10;;;;;;;;;;;;;;;47.47;20.38;100592.69;5075115;28;20382;-65
2022/09/10 05:08:37;;;;;;;;;;;;;;;47.79;20.07;100584.53;5074854;28;20039;-65
2022/09/10 05:11:04;;;;;;;;;;;;;;;48.05;20.01;100587.84;5074843;28;19916;-67
2022/09/10 05:13:30;;;;;;;;;;;;;;;48.38;20.02;100589.03;5074800;28;20447;-66
2022/09/10 05:15:58;;;;;;;;;;;;;;;48.16;20.06;100594.91;5058481;28;19912;-65
2022/09/10 05:18:25;;;;;;;;;;;;;;;47.63;20.17;100599.75;5074652;28;19920;-67
2022/09/10 05:20:52;;;;;;;;;;;;;;;47.57;20.58;100604.72;5075014;28;20259;-66
2022/09/10 05:23:19;;;;;;;;;;;;;;;48.16;20.29;100607.22;5074682;28;19920;-65
2022/09/10 05:25:47;;;;;;;;;;;;;;;48.07;20.27;100614.03;5074755;28;19921;-66
2022/09/10 05:28:19;;;;;;;;;;;;;;;47.68;20.43;100608.38;5074548;28;19958;-65
2022/09/10 05:30:45;;;;;;;;;;;;;;;48.03;20.57;100616.41;5074771;28;19924;-66
2022/09/10 05:33:12;;;;;;;;;;;;;;;48.18;20.05;100615.31;5074566;28;19971;-65
2022/09/10 05:35:38;;;;;;;;;;;;;;;47.55;20.90;100611.78;5075654;28;20378;-65
2022/09/10 05:38:07;;;;;;;;;;;;;;;47.21;20.72;100610.22;5074205;28;19974;-65
2022/09/10 05:40:36;;;;;;;;;;;;;;;46.81;21.36;100623.78;5074556;28;19925;-65
2022/09/10 05:43:03;;;;;;;;;;;;;;;46.56;21.55;100624.75;5074381;28;20288;-66
2022/09/10 05:45:29;;;;;;;;;;;;;;;47.01;21.29;100621.97;5074414;28;19934;-66
2022/09/10 05:47:56;;;;;;;;;;;;;;;47.31;20.62;100614.41;5074313;28;19917;-66
2022/09/10 05:50:23;;;;;;;;;;;;;;;47.58;19.96;100614.94;5074389;28;19924;-65
2022/09/10 05:52:51;;;;;;;;;;;;;;;46.93;21.04;100618.84;5073510;28;19970;-65
2022/09/10 05:55:17;;;;;;;;;;;;;;;46.69;21.34;100627.13;5074397;28;19920;-65
2022/09/10 05:57:45;;;;;;;;;;;;;;;46.56;20.95;100628.41;5075294;28;20132;-65
2022/09/10 06:00:14;;;;;;;;;;;;;;;46.79;21.42;100632.16;5077882;28;19920;-65
2022/09/10 06:02:46;;;;;;;;;;;;;;;46.40;21.78;100628.34;5088342;28;19928;-65
2022/09/10 06:05:26;;;;;;;;;;;;;;;46.72;21.50;100628.97;5093155;28;19924;-65
2022/09/10 06:07:52;;;;;;;;;;;;;;;46.52;21.90;100636.50;5092898;28;19926;-66
2022/09/10 06:10:18;;;;;;;;;;;;;;;46.86;20.92;100637.41;5093771;28;19938;-66
2022/09/10 06:12:46;;;;;;;;;;;;;;;46.32;21.81;100646.03;5094775;28;20401;-66
2022/09/10 06:15:13;;;;;;;;;;;;;;;47.00;21.03;100641.31;5092917;28;19916;-66
2022/09/10 06:17:40;;;;;;;;;;;;;;;47.45;20.31;100630.66;5093683;28;19990;-65
2022/09/10 06:20:06;;;;;;;;;;;;;;;47.46;20.70;100643.72;5093753;28;20389;-64
2022/09/10 06:22:36;;;;;;;;;;;;;;;47.57;20.75;100645.81;5093848;28;19931;-64
2022/09/10 06:25:03;;;;;;;;;;;;;;;46.77;21.26;100654.91;5092985;28;19998;-65
2022/09/10 06:27:29;;;;;;;;;;;;;;;47.48;20.96;100646.88;5093083;28;19927;-65
2022/09/10 06:29:56;;;;;;;;;;;;;;;47.87;20.48;100654.72;5091660;28;19916;-63
2022/09/10 06:32:23;;;;;;;;;;;;;;;47.17;20.88;100661.53;5091677;28;20008;-65
2022/09/10 06:34:49;;;;;;;;;;;;;;;47.00;21.49;100669.31;5091655;28;19916;-63
2022/09/10 06:37:17;;;;;;;;;;;;;;;47.00;21.18;100669.31;5092390;28;19927;-63
2022/09/10 06:39:44;;;;;;;;;;;;;;;47.42;20.87;100660.50;5092597;28;19917;-63
2022/09/10 06:42:11;;;;;;;;;;;;;;;47.69;20.00;100673.31;5093690;28;19927;-65
2022/09/10 06:44:54;;;;;;;;;;;;;;;47.53;20.45;100663.38;5093556;28;19916;-64
2022/09/10 06:47:43;;;;;;;;;;;;;;;47.65;20.35;100658.41;5065776;28;20397;-63
2022/09/10 06:50:10;;;;;;;;;;;;;;;47.73;20.04;100670.16;5091661;28;19963;-66
2022/09/10 06:52:38;;;;;;;;;;;;;;;47.64;20.12;100670.47;5091767;28;20451;-64
2022/09/10 06:55:08;;;;;;;;;;;;;;;46.88;20.85;100680.03;5091913;28;19920;-65
2022/09/10 06:57:38;;;;;;;;;;;;;;;47.67;20.08;100675.94;5091996;28;19942;-64
2022/09/10 07:00:06;;;;;;;;;;;;;;;47.40;20.03;100679.59;5094651;28;19934;-64
2022/09/10 07:02:34;;;;;;;;;;;;;;;47.53;19.81;100674.91;5095223;28;19919;-64
2022/09/10 07:05:02;;;;;;;;;;;;;;;47.27;20.50;100683.00;5095690;28;19920;-65
2022/09/10 07:07:30;;;;;;;;;;;;;;;47.13;20.57;100689.75;5096447;28;20333;-64
2022/09/10 07:09:57;;;;;;;;;;;;;;;47.85;20.13;100678.28;5094498;28;20006;-63
2022/09/10 07:12:23;;;;;;;;;;;;;;;48.26;19.56;100674.81;5112658;28;19969;-66
2022/09/10 07:14:49;;;;;;;;;;;;;;;48.28;20.04;100680.03;5094212;28;20373;-64
2022/09/10 07:17:16;;;;;;;;;;;;;;;48.41;19.91;100678.16;5094269;28;20006;-65
2022/09/10 07:19:42;;;;;;;;;;;;;;;48.29;19.74;100679.50;5094111;28;19919;-64
2022/09/10 07:22:20;;;;;;;;;;;;;;;48.12;19.45;100682.44;5112444;28;19911;-65
2022/09/10 07:24:49;;;;;;;;;;;;;;;48.25;20.17;100672.44;5112965;28;20031;-63
2022/09/10 07:27:26;;;;;;;;;;;;;;;48.12;19.49;100673.78;5114313;28;19916;-64
2022/09/10 07:29:52;;;;;;;;;;;;;;;47.74;20.26;100665.97;5095976;28;19919;-63
2022/09/10 07:32:19;;;;;;;;;;;;;;;48.06;20.68;100660.69;5079208;28;20318;-65
2022/09/10 07:34:48;;;;;;;;;;;;;;;48.22;19.98;100667.72;5095940;28;20325;-65
2022/09/10 07:37:15;;;;;;;;;;;;;;;48.22;20.05;100659.06;5095957;28;20023;-65
2022/09/10 07:39:44;;;;;;;;;;;;;;;47.91;21.04;100675.41;5095702;28;19920;-65
2022/09/10 07:42:11;;;;;;;;;;;;;;;48.11;21.03;100669.31;5095927;28;19923;-65
2022/09/10 07:44:39;;;;;;;;;;;;;;;47.92;20.16;100676.19;5114134;28;19920;-64
2022/09/10 07:47:05;;;;;;;;;;;;;;;47.59;21.35;100685.66;5114146;28;19954;-64
2022/09/10 07:49:32;;;;;;;;;;;;;;;47.47;21.07;100684.84;5095685;28;19919;-65
2022/09/10 07:51:58;;;;;;;;;;;;;;;46.78;21.31;100693.88;5095874;28;20367;-65
2022/09/10 07:54:27;;;;;;;;;;;;;;;46.75;21.99;100689.13;5095812;28;20022;-64
2022/09/10 07:56:55;;;;;;;;;;;;;;;47.03;20.93;100691.28;5079390;28;20350;-64
2022/09/10 07:59:21;;;;;;;;;;;;;;;47.55;20.55;100686.69;5114068;28;20490;-66
2022/09/10 08:01:51;;;;;;;;;;;;;;;46.76;21.73;100682.09;5113948;28;19920;-66
2022/09/10 08:04:20;;;;;;;;;;;;;;;47.36;20.54;100684.81;5113908;28;20002;-66
2022/09/10 08:06:46;;;;;;;;;;;;;;;47.23;20.97;100694.00;5114031;28;19922;-63
2022/09/10 08:09:13;;;;;;;;;;;;;;;47.73;21.14;100681.69;5095555;28;19964;-64
2022/09/10 08:11:47;;;;;;;;;;;;;;;47.38;21.31;100683.00;5129822;28;19916;-64
2022/09/10 08:14:16;;;;;;;;;;;;;;;47.82;21.17;100682.22;5095671;28;20014;-65
2022/09/10 08:16:46;;;;;;;;;;;;;;;46.07;22.93;100692.97;5114016;28;20003;-65
2022/09/10 08:19:13;;;;;;;;;;;;;;;47.22;21.46;100692.41;5095834;28;19920;-64
2022/09/10 08:21:40;;;;;;;;;;;;;;;47.15;20.72;100687.94;5095702;28;19927;-65
2022/09/10 08:24:07;;;;;;;;;;;;;;;47.10;20.98;100685.84;5095595;28;20391;-64
2022/09/10 08:26:34;;;;;;;;;;;;;;;47.20;21.34;100686.38;5113710;28;20270;-63
2022/09/10 08:29:04;;;;;;;;;;;;;;;47.54;21.22;100679.34;5095393;28;19920;-63
2022/09/10 08:31:30;;;;;;;;;;;;;;;47.63;20.49;100680.41;5095275;28;19916;-64
2022/09/10 08:34:17;;;;;;;;;;;;;;;47.83;20.97;100675.13;5113072;28;19927;-65
2022/09/10 08:36:49;;;;;;;;;;;;;;;48.11;20.85;100669.31;5096457;28;19920;-64
2022/09/10 08:39:15;;;;;;;;;;;;;;;48.17;20.63;100674.31;5098979;28;19967;-64
2022/09/10 08:41:57;;;;;;;;;;;;;;;48.28;20.71;100677.94;5098963;28;20010;-64
2022/09/10 08:44:30;;;;;;;;;;;;;;;48.40;20.09;100675.81;5098910;28;20293;-64
2022/09/10 08:47:03;;;;;;;;;;;;;;;48.08;20.75;100676.16;5117439;28;19972;-64
2022/09/10 08:49:35;;;;;;;;;;;;;;;48.10;20.59;100679.28;5098885;28;20014;-65
2022/09/10 08:52:04;;;;;;;;;;;;;;;48.22;20.43;100676.38;5098837;28;19973;-65
2022/09/10 08:54:36;;;;;;;;;;;;;;;48.33;20.30;100682.91;5117077;28;19943;-64
2022/09/10 08:57:04;;;;;;;;;;;;;;;48.18;20.91;100676.66;5098814;28;19920;-64
2022/09/10 08:59:38;;;;;;;;;;;;;;;48.33;20.59;100685.81;5116954;28;19920;-64
2022/09/10 09:02:20;;;;;;;;;;;;;;;48.28;20.31;100688.69;5098397;28;19998;-64
2022/09/10 09:05:04;;;;;;;;;;;;;;;47.78;21.18;100689.56;5098554;28;20281;-64
2022/09/10 09:07:38;;;;;;;;;;;;;;;48.06;20.67;100690.31;5098552;28;19920;-63
2022/09/10 09:10:31;;;;;;;;;;;;;;;48.10;21.06;100696.56;5098442;28;19926;-64
2022/09/10 09:13:16;;;;;;;;;;;;;;;47.77;20.81;100685.13;5113841;28;19963;-62
2022/09/10 09:15:46;;;;;;;;;;;;;;;47.90;20.52;100688.25;5116758;28;20281;-64
2022/09/10 09:18:20;;;;;;;;;;;;;;;48.26;20.92;100692.09;5116633;28;19916;-64
2022/09/10 09:20:50;;;;;;;;;;;;;;;47.98;21.22;100688.50;5098173;28;19923;-64
2022/09/10 09:23:22;;;;;;;;;;;;;;;48.24;20.52;100693.94;5098266;28;19915;-64
2022/09/10 09:25:55;;;;;;;;;;;;;;;48.12;20.81;100690.28;5098238;28;19920;-64
2022/09/10 09:28:35;;;;;;;;;;;;;;;47.89;21.41;100692.44;5098021;28;20339;-64
2022/09/10 09:31:07;;;;;;;;;;;;;;;48.09;21.04;100695.00;5098142;28;20452;-63
2022/09/10 09:33:33;;;;;;;;;;;;;;;48.22;20.43;100710.97;5098072;28;19966;-63
2022/09/10 09:36:01;;;;;;;;;;;;;;;48.24;20.04;100694.72;5097893;28;19916;-64
2022/09/10 09:38:41;;;;;;;;;;;;;;;47.71;20.74;100696.63;5097802;28;19920;-64
2022/09/10 09:41:14;;;;;;;;;;;;;;;48.23;20.10;100704.69;5098113;28;19919;-63
2022/09/10 09:43:48;;;;;;;;;;;;;;;48.16;20.65;100698.69;5116050;28;19926;-64
2022/09/10 09:46:17;;;;;;;;;;;;;;;48.06;21.02;100701.84;5097777;28;19942;-64
2022/09/10 09:48:46;;;;;;;;;;;;;;;48.11;20.79;100709.69;5097603;28;19955;-64
2022/09/10 09:51:19;;;;;;;;;;;;;;;48.33;20.50;100703.09;5097670;28;19920;-64
2022/09/10 10:16:54;;;;;;;;;;;;;;;47.08;22.39;100722.19;5131542;27;19977;-63
2022/09/10 10:19:31;;;;;;;;;;;;;;;46.71;22.97;100725.22;5131509;28;19919;-65
2022/09/10 10:22:18;;;;;;;;;;;;;;;46.95;22.80;100732.09;5131557;28;19920;-64
2022/09/10 10:24:45;;;;;;;;;;;;;;;46.82;22.67;100728.91;5131541;28;19920;-64
2022/09/10 10:27:28;;;;;;;;;;;;;;;46.81;22.87;100732.31;5131664;28;20014;-64
2022/09/10 10:29:57;;;;;;;;;;;;;;;46.55;22.92;100736.13;5129546;28;19962;-64
2022/09/10 10:32:28;;;;;;;;;;;;;;;46.60;22.97;100734.56;5120311;28;20369;-64
2022/09/10 10:35:18;;;;;;;;;;;;;;;46.85;22.76;100739.38;5131313;28;19969;-65
2022/09/10 10:38:11;;;;;;;;;;;;;;;47.03;22.54;100743.88;5131330;28;19919;-64
2022/09/10 10:40:42;;;;;;;;;;;;;;;46.73;22.99;100737.75;5128114;28;20008;-64
2022/09/10 10:43:08;;;;;;;;;;;;;;;46.89;22.96;100748.56;5131194;28;19920;-64
2022/09/10 10:45:37;;;;;;;;;;;;;;;46.79;23.59;100747.22;5130973;28;20002;-63
2022/09/10 10:48:10;;;;;;;;;;;;;;;46.92;22.69;100749.63;5131041;28;19930;-64
2022/09/10 10:50:54;;;;;;;;;;;;;;;46.77;23.25;100740.41;5112683;28;19926;-64
2022/09/10 10:53:27;;;;;;;;;;;;;;;46.70;23.51;100764.69;5131042;28;19930;-64
2022/09/10 10:56:03;;;;;;;;;;;;;;;46.76;23.35;100762.66;5112775;28;19923;-63
2022/09/10 10:58:29;;;;;;;;;;;;;;;46.84;23.62;100766.59;5131041;28;19919;-64
2022/09/10 11:01:03;;;;;;;;;;;;;;;46.95;22.96;100766.63;5130933;28;19923;-64
2022/09/10 11:03:36;;;;;;;;;;;;;;;46.54;23.58;100771.94;5130880;28;19965;-64
2022/09/10 11:06:04;;;;;;;;;;;;;;;46.39;23.95;100774.19;5130936;28;20031;-63
2022/09/10 11:08:33;;;;;;;;;;;;;;;46.40;23.83;100777.84;5130591;28;20426;-65
2022/09/10 11:11:00;;;;;;;;;;;;;;;46.49;23.82;100781.28;5130711;28;20003;-64
2022/09/10 11:13:42;;;;;;;;;;;;;;;46.43;23.35;100777.59;5130618;28;19916;-63
2022/09/10 11:16:14;;;;;;;;;;;;;;;46.58;23.63;100792.59;5126418;28;20285;-64
2022/09/10 11:19:03;;;;;;;;;;;;;;;46.50;23.36;100788.63;5117049;28;19919;-64
2022/09/10 11:22:05;;;;;;;;;;;;;;;46.54;23.29;100794.16;5106180;28;19923;-64
2022/09/10 11:24:32;;;;;;;;;;;;;;;46.53;22.78;100792.59;5034156;28;20433;-64
2022/09/10 11:27:02;;;;;;;;;;;;;;;46.51;23.05;100795.97;5100821;28;19916;-64
2022/09/10 11:29:31;;;;;;;;;;;;;;;46.38;23.47;100799.25;5116639;28;20296;-64
2022/09/10 11:32:07;;;;;;;;;;;;;;;46.38;23.76;100807.88;5116601;28;19916;-64
2022/09/10 11:34:52;;;;;;;;;;;;;;;46.29;23.14;100807.28;5116510;28;19931;-64
2022/09/10 11:37:28;;;;;;;;;;;;;;;45.96;23.58;100808.56;5116530;28;20361;-64
2022/09/10 11:39:57;;;;;;;;;;;;;;;46.10;23.94;100804.00;5116312;28;19923;-64
2022/09/10 11:42:34;;;;;;;;;;;;;;;46.24;23.58;100817.44;5116458;28;20357;-64
2022/09/10 11:45:13;;;;;;;;;;;;;;;46.41;23.28;100813.94;5116459;28;20381;-64
2022/09/10 11:47:44;;;;;;;;;;;;;;;46.66;23.43;100813.03;5116357;28;20027;-64
2022/09/10 11:50:23;;;;;;;;;;;;;;;46.49;24.61;100817.91;5116178;28;19920;-64
2022/09/10 11:52:49;;;;;;;;;;;;;;;46.34;24.96;100824.59;5116216;28;19996;-64
2022/09/10 11:55:16;;;;;;;;;;;;;;;46.24;24.49;100831.81;5116140;28;19916;-64
2022/09/10 11:57:47;;;;;;;;;;;;;;;46.24;25.44;100828.94;5116317;28;19926;-63
2022/09/10 12:00:16;;;;;;;;;;;;;;;45.59;26.53;100839.28;5116336;28;19923;-64
2022/09/10 12:02:57;;;;;;;;;;;;;;;45.75;26.67;100832.94;5116215;28;19938;-64
2022/09/10 12:05:45;;;;;;;;;;;;;;;45.82;26.23;100837.47;5116480;28;19954;-64
2022/09/10 12:08:34;;;;;;;;;;;;;;;45.62;27.79;100841.94;5116200;28;19919;-64
2022/09/10 12:11:03;;;;;;;;;;;;;;;45.06;31.87;100837.59;5078011;28;19923;-63
2022/09/10 12:13:32;;;;;;;;;;;;;;;44.40;30.77;100841.06;5116002;28;20357;-63
2022/09/10 12:16:03;;;;;;;;;;;;;;;43.96;30.70;100839.78;5115651;28;19927;-64
2022/09/10 12:18:38;;;;;;;;;;;;;;;44.35;31.06;100839.69;5116072;28;19920;-63
2022/09/10 12:21:08;;;;;;;;;;;;;;;44.68;30.36;100841.50;5115980;28;19919;-64
2022/09/10 12:23:38;;;;;;;;;;;;;;;44.91;29.99;100846.28;5115904;28;19919;-64
2022/09/10 12:26:09;;;;;;;;;;;;;;;43.54;30.79;100853.56;5115831;28;19923;-64
2022/09/10 12:28:41;;;;;;;;;;;;;;;42.66;31.11;100863.34;5114765;28;19919;-65
2022/09/10 12:31:08;;;;;;;;;;;;;;;44.14;30.04;100866.69;5115664;28;19959;-64
2022/09/10 12:33:56;;;;;;;;;;;;;;;44.53;29.81;100855.88;5115913;28;19916;-64
2022/09/10 12:36:25;;;;;;;;;;;;;;;44.69;29.29;100868.88;5115579;28;19920;-64
2022/09/10 12:38:51;;;;;;;;;;;;;;;44.27;29.45;100867.16;5115562;28;19923;-64
2022/09/10 12:41:23;;;;;;;;;;;;;;;44.64;29.89;100875.31;5115490;28;19924;-64
2022/09/10 12:43:57;;;;;;;;;;;;;;;44.58;28.38;100881.78;5115510;28;19971;-65
2022/09/10 12:46:24;;;;;;;;;;;;;;;44.39;28.74;100883.25;5115439;28;19927;-64
2022/09/10 12:48:54;;;;;;;;;;;;;;;44.92;28.80;100890.09;5115321;28;19937;-64
2022/09/10 12:51:30;;;;;;;;;;;;;;;44.90;28.24;100893.47;5115226;28;19926;-64
2022/09/10 12:54:03;;;;;;;;;;;;;;;44.94;28.11;100896.94;5115449;28;19919;-63
2022/09/10 12:56:47;;;;;;;;;;;;;;;45.03;28.29;100899.63;5115074;28;19955;-64
2022/09/10 12:59:31;;;;;;;;;;;;;;;44.93;28.86;100903.94;5115224;28;19923;-64
2022/09/10 13:01:58;;;;;;;;;;;;;;;44.79;28.14;100907.63;5115146;28;19927;-64
2022/09/10 13:04:29;;;;;;;;;;;;;;;45.14;28.22;100905.53;5114989;28;20322;-63
2022/09/10 13:06:58;;;;;;;;;;;;;;;45.18;27.93;100911.84;5115027;28;20441;-64
2022/09/10 13:09:29;;;;;;;;;;;;;;;45.55;28.11;100916.25;5114885;28;19970;-64
2022/09/10 13:11:58;;;;;;;;;;;;;;;45.55;27.08;100922.78;5114918;28;19927;-63
2022/09/10 13:14:29;;;;;;;;;;;;;;;45.44;27.71;100923.44;5114610;28;19920;-63
2022/09/10 13:16:56;;;;;;;;;;;;;;;45.27;28.21;100928.19;5114742;28;20372;-63
2022/09/10 13:19:22;;;;;;;;;;;;;;;45.25;28.09;100927.06;5115015;28;20385;-63
2022/09/10 13:21:50;;;;;;;;;;;;;;;45.22;28.24;100934.59;5114629;28;20362;-64
2022/09/10 13:24:36;;;;;;;;;;;;;;;45.23;28.06;100933.31;5114614;28;19916;-64
2022/09/10 13:27:11;;;;;;;;;;;;;;;45.29;28.18;100928.47;5114598;28;19919;-65